createdAt,value
2018-06-09T00:02:09.299Z,19.63
2018-06-09T00:04:37.485Z,18.17
2018-06-09T00:07:05.684Z,14.90
2018-06-09T00:09:34.005Z,16.63
2018-06-09T00:12:02.192Z,16.63
2018-06-09T00:14:30.371Z,18.43
2018-06-09T00:16:58.853Z,22.43
2018-06-09T00:19:27.032Z,21.77
2018-06-09T00:21:55.356Z,18.23
2018-06-09T00:24:23.688Z,23.03
2018-06-09T00:26:53.217Z,19.00
2018-06-09T00:29:21.452Z,18.93
2018-06-09T00:31:50.349Z,24.47
2018-06-09T00:34:18.631Z,23.93
2018-06-09T00:36:46.833Z,34.40
2018-06-09T00:39:15.168Z,34.53
2018-06-09T00:41:43.381Z,28.47
2018-06-09T00:44:11.576Z,25.97
2018-06-09T00:46:39.920Z,51.57
2018-06-09T00:49:08.092Z,36.43
2018-06-09T00:51:36.276Z,38.77
2018-06-09T00:54:04.440Z,37.73
2018-06-09T00:56:44.977Z,29.63
2018-06-09T00:59:13.364Z,33.47
2018-06-09T01:01:41.548Z,29.73
2018-06-09T01:04:09.789Z,27.17
2018-06-09T01:06:37.975Z,30.40
2018-06-09T01:09:08.211Z,31.17
2018-06-09T01:11:36.567Z,38.40
2018-06-09T01:14:04.809Z,28.77
2018-06-09T01:16:33.052Z,28.80
2018-06-09T01:19:01.272Z,30.23
2018-06-09T01:21:29.340Z,21.40
2018-06-09T01:23:57.800Z,17.33
2018-06-09T01:26:25.996Z,17.83
2018-06-09T01:28:54.211Z,19.43
2018-06-09T01:31:22.546Z,14.87
2018-06-09T01:33:50.792Z,14.73
2018-06-09T01:36:18.992Z,14.87
2018-06-09T01:38:47.173Z,14.77
2018-06-09T01:41:15.361Z,18.83
2018-06-09T01:43:43.535Z,19.73
2018-06-09T01:46:12.270Z,20.83
2018-06-09T01:48:40.625Z,25.77
2018-06-09T01:51:09.085Z,27.97
2018-06-09T01:53:37.275Z,22.17
2018-06-09T01:56:05.450Z,16.00
2018-06-09T01:58:33.658Z,13.87
2018-06-09T02:01:02.077Z,12.67
2018-06-09T02:03:30.274Z,12.40
2018-06-09T02:05:58.550Z,11.93
2018-06-09T02:08:26.912Z,12.43
2018-06-09T02:10:55.123Z,15.90
2018-06-09T02:13:23.459Z,20.73
2018-06-09T02:15:51.654Z,19.13
2018-06-09T02:18:19.837Z,22.13
2018-06-09T02:20:48.221Z,15.13
2018-06-09T02:23:16.448Z,18.93
2018-06-09T02:25:44.651Z,16.80
2018-06-09T02:28:12.953Z,18.13
2018-06-09T02:30:41.136Z,32.50
2018-06-09T02:33:09.335Z,35.53
2018-06-09T02:35:37.919Z,34.17
2018-06-09T02:38:06.185Z,33.73
2018-06-09T02:40:34.363Z,37.80
2018-06-09T02:43:02.723Z,26.63
2018-06-09T02:45:31.016Z,35.93
2018-06-09T02:47:59.244Z,28.83
2018-06-09T02:50:27.530Z,36.40
2018-06-09T02:52:55.722Z,26.07
2018-06-09T02:55:23.924Z,24.30
2018-06-09T02:57:52.142Z,24.97
2018-06-09T03:00:20.341Z,28.97
2018-06-09T03:02:49.401Z,34.83
2018-06-09T03:05:17.872Z,33.17
2018-06-09T03:07:46.073Z,32.03
2018-06-09T03:10:14.366Z,33.30
2018-06-09T03:12:42.663Z,23.33
2018-06-09T03:15:10.888Z,28.23
2018-06-09T03:17:39.072Z,22.20
2018-06-09T03:20:07.791Z,55.10
2018-06-09T03:22:35.995Z,39.43
2018-06-09T03:25:04.252Z,33.60
2018-06-09T03:27:32.440Z,51.70
2018-06-09T03:30:00.681Z,32.57
2018-06-09T03:32:28.918Z,43.53
2018-06-09T03:34:57.329Z,49.50
2018-06-09T03:37:25.508Z,46.07
2018-06-09T03:39:53.771Z,38.27
2018-06-09T03:42:22.061Z,45.80
2018-06-09T03:44:50.340Z,41.60
2018-06-09T03:47:18.508Z,62.07
2018-06-09T03:49:46.684Z,48.67
2018-06-09T03:52:14.905Z,41.07
2018-06-09T03:54:43.288Z,34.97
2018-06-09T03:57:11.544Z,35.17
2018-06-09T03:59:40.130Z,46.23
2018-06-09T04:02:08.256Z,46.00
2018-06-09T04:04:36.488Z,44.30
2018-06-09T04:07:04.762Z,41.87
2018-06-09T04:09:33.016Z,48.77
2018-06-09T04:12:01.177Z,43.43
2018-06-09T04:14:29.384Z,48.47
2018-06-09T04:16:57.664Z,58.77
2018-06-09T04:19:26.820Z,59.40
2018-06-09T04:21:55.029Z,50.00
2018-06-09T04:24:23.258Z,60.83
2018-06-09T04:26:51.557Z,47.70
2018-06-09T04:29:19.728Z,49.07
2018-06-09T04:31:47.900Z,62.77
2018-06-09T04:34:16.056Z,43.17
2018-06-09T04:36:44.213Z,55.53
2018-06-09T04:39:12.403Z,44.43
2018-06-09T04:41:40.636Z,32.17
2018-06-09T04:44:08.820Z,39.90
2018-06-09T04:46:36.992Z,48.43
2018-06-09T04:49:05.269Z,53.87
2018-06-09T04:51:33.444Z,36.30
2018-06-09T04:54:01.615Z,40.93
2018-06-09T04:56:29.820Z,45.20
2018-06-09T04:58:58.037Z,68.73
2018-06-09T05:01:26.208Z,58.67
2018-06-09T05:03:54.385Z,74.20
2018-06-09T05:06:23.128Z,56.93
2018-06-09T05:08:51.308Z,68.20
2018-06-09T05:11:19.801Z,56.13
2018-06-09T05:13:47.977Z,46.97
2018-06-09T05:16:15.948Z,34.97
2018-06-09T05:18:44.121Z,59.07
2018-06-09T05:21:12.064Z,62.53
2018-06-09T05:23:40.225Z,48.70
2018-06-09T05:26:08.767Z,59.07
2018-06-09T05:28:36.975Z,46.37
2018-06-09T05:31:05.273Z,37.57
2018-06-09T05:33:33.452Z,39.03
2018-06-09T05:36:01.752Z,44.20
2018-06-09T05:38:29.970Z,36.37
2018-06-09T05:40:58.211Z,42.40
2018-06-09T05:43:27.098Z,29.20
2018-06-09T05:45:55.290Z,39.43
2018-06-09T05:48:23.452Z,41.97
2018-06-09T05:50:51.719Z,34.87
2018-06-09T05:53:19.886Z,37.97
2018-06-09T05:55:48.060Z,33.17
2018-06-09T05:58:16.353Z,47.10
2018-06-09T06:00:44.570Z,35.33
2018-06-09T06:03:13.204Z,75.47
2018-06-09T06:05:42.383Z,57.13
2018-06-09T06:08:10.553Z,54.63
2018-06-09T06:10:38.900Z,36.00
2018-06-09T06:13:07.296Z,45.00
2018-06-09T06:15:35.245Z,61.27
2018-06-09T06:18:03.418Z,50.77
2018-06-09T06:20:31.708Z,63.30
2018-06-09T06:22:59.876Z,56.63
2018-06-09T06:25:28.101Z,45.33
2018-06-09T06:27:56.333Z,61.37
2018-06-09T06:30:24.536Z,54.33
2018-06-09T06:32:53.749Z,48.40
2018-06-09T06:35:21.948Z,50.30
2018-06-09T06:37:50.324Z,43.40
2018-06-09T06:40:18.500Z,40.80
2018-06-09T06:42:46.668Z,31.13
2018-06-09T06:45:14.845Z,23.37
2018-06-09T06:47:43.016Z,38.53
2018-06-09T06:50:11.288Z,31.93
2018-06-09T06:52:39.450Z,35.10
2018-06-09T06:55:07.739Z,38.63
2018-06-09T06:57:35.904Z,44.70
2018-06-09T07:00:04.084Z,30.43
2018-06-09T07:02:32.305Z,34.27
2018-06-09T07:05:00.299Z,56.60
2018-06-09T07:07:28.525Z,48.23
2018-06-09T07:09:56.693Z,74.63
2018-06-09T07:12:24.860Z,64.80
2018-06-09T07:14:53.024Z,49.67
2018-06-09T07:17:21.860Z,56.57
2018-06-09T07:19:50.029Z,44.57
2018-06-09T07:22:18.335Z,50.20
2018-06-09T07:24:46.514Z,77.60
2018-06-09T07:27:14.688Z,55.90
2018-06-09T07:29:42.859Z,44.17
2018-06-09T07:32:11.035Z,54.80
2018-06-09T07:34:39.297Z,50.63
2018-06-09T07:37:07.567Z,81.37
2018-06-09T07:39:35.872Z,49.70
2018-06-09T07:42:04.099Z,40.10
2018-06-09T07:44:32.277Z,28.43
2018-06-09T07:47:00.227Z,26.70
2018-06-09T07:49:28.513Z,28.03
2018-06-09T07:51:56.680Z,23.70
2018-06-09T07:54:24.840Z,25.97
2018-06-09T07:56:53.149Z,39.10
2018-06-09T07:59:21.465Z,28.73
2018-06-09T08:04:18.757Z,47.53
2018-06-09T08:06:46.968Z,55.07
2018-06-09T08:09:15.266Z,33.77
2018-06-09T08:11:43.459Z,35.90
2018-06-09T08:14:11.642Z,38.13
2018-06-09T08:16:39.813Z,30.13
2018-06-09T08:19:08.094Z,49.20
2018-06-09T08:21:36.536Z,48.33
2018-06-09T08:24:04.692Z,85.20
2018-06-09T08:26:32.927Z,55.27
2018-06-09T08:29:01.187Z,39.13
2018-06-09T08:31:29.320Z,33.63
2018-06-09T08:33:57.465Z,56.33
2018-06-09T08:36:25.739Z,45.07
2018-06-09T08:38:53.865Z,46.47
2018-06-09T08:41:22.211Z,54.00
2018-06-09T08:43:50.474Z,52.30
2018-06-09T08:46:18.657Z,60.63
2018-06-09T08:48:46.952Z,40.00
2018-06-09T08:51:15.196Z,39.93
2018-06-09T08:53:43.362Z,33.33
2018-06-09T08:56:11.672Z,51.20
2018-06-09T08:59:10.762Z,52.20
2018-06-09T09:01:38.940Z,56.47
2018-06-09T09:04:07.092Z,36.23
2018-06-09T09:06:35.256Z,53.87
2018-06-09T09:09:03.968Z,33.73
2018-06-09T09:11:32.132Z,31.57
2018-06-09T09:14:00.307Z,42.10
2018-06-09T09:16:28.613Z,44.70
2018-06-09T09:18:56.741Z,67.93
2018-06-09T09:21:25.001Z,62.50
2018-06-09T09:23:53.160Z,87.83
2018-06-09T09:26:21.522Z,72.73
2018-06-09T09:28:49.834Z,58.97
2018-06-09T09:31:18.122Z,67.40
2018-06-09T09:33:46.324Z,98.93
2018-06-09T09:36:14.635Z,82.37
2018-06-09T09:38:42.836Z,45.27
2018-06-09T09:41:11.032Z,64.43
2018-06-09T09:43:39.414Z,60.30
2018-06-09T09:46:07.579Z,69.73
2018-06-09T09:48:35.750Z,67.57
2018-06-09T09:51:03.932Z,60.03
2018-06-09T09:53:32.109Z,65.03
2018-06-09T09:56:00.323Z,63.10
2018-06-09T09:58:28.500Z,57.47
2018-06-09T10:00:56.644Z,51.67
2018-06-09T10:03:24.814Z,59.47
2018-06-09T10:05:52.976Z,70.50
2018-06-09T10:08:21.142Z,54.53
2018-06-09T10:10:49.361Z,55.17
2018-06-09T10:13:17.530Z,48.37
2018-06-09T10:15:45.689Z,61.07
2018-06-09T10:18:13.993Z,54.07
2018-06-09T10:20:42.260Z,47.70
2018-06-09T10:23:10.435Z,42.40
2018-06-09T10:25:38.596Z,73.60
2018-06-09T10:28:06.772Z,71.87
2018-06-09T10:30:35.642Z,60.60
2018-06-09T10:33:07.433Z,51.77
2018-06-09T10:35:40.365Z,53.57
2018-06-09T10:38:12.248Z,70.77
2018-06-09T10:40:45.061Z,61.83
2018-06-09T10:43:17.943Z,51.07
2018-06-09T10:45:49.628Z,56.20
2018-06-09T10:48:25.557Z,59.00
2018-06-09T10:51:01.811Z,70.83
2018-06-09T10:53:30.810Z,68.23
2018-06-09T10:56:01.052Z,69.17
2018-06-09T10:58:29.225Z,76.57
2018-06-09T11:00:57.389Z,69.20
2018-06-09T11:03:25.546Z,61.93
2018-06-09T11:05:53.893Z,60.47
2018-06-09T11:08:22.190Z,49.57
2018-06-09T11:10:50.656Z,61.37
2018-06-09T11:13:18.825Z,65.13
2018-06-09T11:15:46.992Z,68.00
2018-06-09T11:18:15.280Z,85.23
2018-06-09T11:20:43.673Z,76.93
2018-06-09T11:23:11.871Z,58.83
2018-06-09T11:25:40.221Z,68.37
2018-06-09T11:28:08.385Z,62.10
2018-06-09T11:30:36.554Z,60.03
2018-06-09T11:33:04.792Z,81.07
2018-06-09T11:35:32.939Z,63.27
2018-06-09T11:38:01.100Z,60.87
2018-06-09T11:40:29.306Z,53.30
2018-06-09T11:42:57.665Z,56.07
2018-06-09T11:45:27.029Z,56.43
2018-06-09T11:47:55.785Z,59.13
2018-06-09T11:50:24.765Z,49.90
2018-06-09T11:52:53.461Z,48.43
2018-06-09T11:55:22.257Z,44.20
2018-06-09T11:57:51.279Z,40.67
2018-06-09T12:00:19.553Z,39.93
2018-06-09T12:02:48.115Z,43.50
2018-06-09T12:05:16.912Z,52.67
2018-06-09T12:07:45.831Z,53.87
2018-06-09T12:10:45.074Z,51.27
2018-06-09T12:13:13.713Z,45.33
2018-06-09T12:15:43.537Z,45.03
2018-06-09T12:18:12.340Z,55.60
2018-06-09T12:20:41.193Z,47.27
2018-06-09T12:23:09.966Z,53.77
2018-06-09T12:25:38.572Z,54.20
2018-06-09T12:28:06.886Z,54.03
2018-06-09T12:30:35.535Z,52.70
2018-06-09T12:33:04.402Z,51.97
2018-06-09T12:35:33.019Z,49.80
2018-06-09T12:38:01.786Z,42.47
2018-06-09T12:40:30.600Z,44.07
2018-06-09T12:42:59.291Z,36.13
2018-06-09T12:45:28.433Z,44.57
2018-06-09T12:47:57.470Z,43.13
2018-06-09T12:50:25.984Z,53.17
2018-06-09T12:52:54.770Z,51.43
2018-06-09T12:55:23.021Z,38.83
2018-06-09T12:57:51.231Z,39.93
2018-06-09T13:00:19.577Z,37.10
2018-06-09T13:02:47.899Z,36.60
2018-06-09T13:05:16.060Z,40.33
2018-06-09T13:07:44.293Z,47.07
2018-06-09T13:10:12.719Z,54.13
2018-06-09T13:12:40.976Z,50.77
2018-06-09T13:15:09.401Z,40.60
2018-06-09T13:17:37.566Z,44.37
2018-06-09T13:20:05.800Z,35.83
2018-06-09T13:22:34.024Z,38.63
2018-06-09T13:25:02.249Z,34.40
2018-06-09T13:27:30.532Z,46.37
2018-06-09T13:29:58.709Z,58.63
2018-06-09T13:32:26.875Z,49.93
2018-06-09T13:34:55.054Z,47.70
2018-06-09T13:37:23.463Z,51.63
2018-06-09T13:39:51.633Z,38.23
2018-06-09T13:42:20.901Z,55.87
2018-06-09T13:44:49.092Z,61.43
2018-06-09T13:47:17.407Z,74.00
2018-06-09T13:49:45.566Z,71.03
2018-06-09T13:52:18.941Z,61.47
2018-06-09T13:54:52.630Z,58.53
2018-06-09T13:57:27.575Z,60.40
2018-06-09T14:00:00.704Z,59.27
2018-06-09T14:05:17.773Z,64.60
2018-06-09T14:07:51.625Z,60.60
2018-06-09T14:10:22.523Z,55.93
2018-06-09T14:12:59.125Z,52.53
2018-06-09T14:15:31.701Z,55.43
2018-06-09T14:18:06.725Z,50.87
2018-06-09T14:20:41.552Z,43.67
2018-06-09T14:23:13.752Z,53.67
2018-06-09T14:25:43.679Z,48.03
2018-06-09T14:28:15.949Z,41.30
2018-06-09T14:30:49.435Z,47.00
2018-06-09T14:33:25.770Z,47.30
2018-06-09T14:35:59.258Z,47.17
2018-06-09T14:38:34.777Z,39.20
2018-06-09T14:41:04.078Z,48.63
2018-06-09T14:43:33.519Z,46.73
2018-06-09T14:46:01.730Z,48.20
2018-06-09T14:48:29.959Z,51.40
2018-06-09T14:50:58.321Z,48.27
2018-06-09T14:53:27.700Z,56.27
2018-06-09T14:55:55.866Z,46.83
2018-06-09T14:58:24.031Z,46.23
2018-06-09T15:00:52.451Z,48.20
2018-06-09T15:03:20.608Z,40.73
2018-06-09T15:05:48.869Z,38.13
2018-06-09T15:08:17.044Z,42.90
2018-06-09T15:10:45.234Z,39.57
2018-06-09T15:13:13.365Z,50.37
2018-06-09T15:15:41.541Z,45.67
2018-06-09T15:18:09.714Z,46.10
2018-06-09T15:20:38.113Z,51.20
2018-06-09T15:23:06.280Z,48.37
2018-06-09T15:25:34.440Z,44.67
2018-06-09T15:28:02.738Z,43.93
2018-06-09T15:30:30.901Z,39.20
2018-06-09T15:32:59.160Z,34.07
2018-06-09T15:35:27.325Z,41.77
2018-06-09T15:37:55.484Z,45.87
2018-06-09T15:40:23.702Z,45.37
2018-06-09T15:42:51.857Z,40.47
2018-06-09T15:45:20.056Z,49.80
2018-06-09T15:47:48.208Z,48.50
2018-06-09T15:50:16.826Z,48.97
2018-06-09T15:52:44.973Z,43.70
2018-06-09T15:55:13.506Z,45.73
2018-06-09T15:57:41.700Z,45.07
2018-06-09T16:00:09.838Z,43.67
2018-06-09T16:02:38.013Z,38.90
2018-06-09T16:05:06.192Z,35.43
2018-06-09T16:07:34.358Z,43.63
2018-06-09T16:10:02.633Z,37.60
2018-06-09T16:12:30.805Z,43.33
2018-06-09T16:14:59.366Z,43.37
2018-06-09T16:17:27.480Z,40.80
2018-06-09T16:19:55.639Z,39.80
2018-06-09T16:22:23.908Z,42.20
2018-06-09T16:24:52.060Z,43.30
2018-06-09T16:27:20.573Z,45.13
2018-06-09T16:29:48.745Z,39.23
2018-06-09T16:32:16.945Z,36.63
2018-06-09T16:34:45.365Z,39.63
2018-06-09T16:37:13.636Z,41.23
2018-06-09T16:39:42.014Z,41.43
2018-06-09T16:42:10.233Z,42.43
2018-06-09T16:44:38.395Z,35.97
2018-06-09T16:47:06.621Z,35.77
2018-06-09T16:49:34.791Z,32.87
2018-06-09T16:52:03.213Z,28.80
2018-06-09T16:54:31.385Z,27.53
2018-06-09T16:56:59.535Z,37.30
2018-06-09T16:59:27.698Z,32.80
2018-06-09T17:02:02.724Z,32.13
2018-06-09T17:04:31.110Z,31.70
2018-06-09T17:06:59.315Z,29.50
2018-06-09T17:09:27.692Z,27.83
2018-06-09T17:11:55.968Z,26.20
2018-06-09T17:14:25.537Z,32.37
2018-06-09T17:16:53.751Z,32.07
2018-06-09T17:19:21.909Z,25.27
2018-06-09T17:21:50.276Z,28.17
2018-06-09T17:24:18.427Z,23.13
2018-06-09T17:26:46.596Z,18.43
2018-06-09T17:29:14.792Z,19.40
2018-06-09T17:31:43.042Z,21.83
2018-06-09T17:34:11.428Z,20.03
2018-06-09T17:36:39.602Z,22.87
2018-06-09T17:39:08.044Z,24.20
2018-06-09T17:41:36.210Z,26.30
2018-06-09T17:44:04.445Z,20.20
2018-06-09T17:46:32.707Z,21.20
2018-06-09T17:49:00.864Z,19.53
2018-06-09T17:51:29.047Z,18.07
2018-06-09T17:53:57.188Z,23.17
2018-06-09T17:56:25.341Z,20.07
2018-06-09T17:58:53.507Z,15.43
2018-06-09T18:01:21.832Z,18.60
2018-06-09T18:03:50.006Z,17.20
2018-06-09T18:06:18.165Z,15.73
2018-06-09T18:08:46.320Z,16.17
2018-06-09T18:11:14.490Z,19.03
2018-06-09T18:13:42.796Z,18.80
2018-06-09T18:16:11.016Z,19.83
2018-06-09T18:18:39.295Z,18.47
2018-06-09T18:21:07.481Z,21.77
2018-06-09T18:23:35.661Z,19.83
2018-06-09T18:26:04.268Z,17.47
2018-06-09T18:28:32.444Z,15.07
2018-06-09T18:31:00.605Z,16.00
2018-06-09T18:33:28.769Z,13.63
2018-06-09T18:35:56.989Z,21.47
2018-06-09T18:38:25.147Z,17.93
2018-06-09T18:40:53.428Z,16.67
2018-06-09T18:43:21.596Z,19.60
2018-06-09T18:45:49.804Z,18.50
2018-06-09T18:48:17.986Z,18.43
2018-06-09T18:50:46.174Z,23.33
2018-06-09T18:53:14.308Z,21.53
2018-06-09T18:55:42.820Z,22.43
2018-06-09T18:58:11.355Z,24.60
2018-06-09T19:00:39.504Z,20.73
2018-06-09T19:03:07.700Z,18.77
2018-06-09T19:05:35.863Z,15.37
2018-06-09T19:08:04.178Z,15.27
2018-06-09T19:10:32.475Z,15.63
2018-06-09T19:13:00.708Z,14.50
2018-06-09T19:15:28.968Z,11.13
2018-06-09T19:17:57.215Z,12.17
2018-06-09T19:20:25.526Z,12.27
2018-06-09T19:22:53.873Z,11.47
2018-06-09T19:25:23.069Z,12.50
2018-06-09T19:27:52.112Z,11.17
2018-06-09T19:30:21.296Z,12.20
2018-06-09T19:32:49.715Z,13.60
2018-06-09T19:35:17.873Z,15.57
2018-06-09T19:37:46.093Z,11.13
2018-06-09T19:40:15.018Z,13.13
2018-06-09T19:42:43.427Z,13.83
2018-06-09T19:45:11.764Z,15.97
2018-06-09T19:47:39.915Z,13.93
2018-06-09T19:50:09.234Z,15.30
2018-06-09T19:52:37.529Z,11.53
2018-06-09T19:55:07.367Z,12.70
2018-06-09T19:57:35.581Z,12.00
2018-06-09T20:00:04.073Z,10.80
2018-06-09T20:02:33.089Z,10.00
2018-06-09T20:05:01.269Z,9.27
2018-06-09T20:07:29.440Z,8.53
2018-06-09T20:09:57.844Z,12.50
2018-06-09T20:12:26.174Z,9.27
2018-06-09T20:14:54.479Z,8.87
2018-06-09T20:17:22.598Z,11.23
2018-06-09T20:19:51.420Z,11.10
2018-06-09T20:22:19.661Z,9.33
2018-06-09T20:24:49.249Z,13.47
2018-06-09T20:27:18.053Z,17.43
2018-06-09T20:29:47.453Z,10.73
2018-06-09T20:32:17.004Z,11.63
2018-06-09T20:34:45.181Z,11.97
2018-06-09T20:37:14.779Z,11.87
2018-06-09T20:39:43.470Z,11.40
2018-06-09T20:42:11.637Z,10.33
2018-06-09T20:44:40.456Z,10.10
2018-06-09T20:47:09.853Z,13.40
2018-06-09T20:49:38.109Z,13.43
2018-06-09T20:52:06.317Z,13.80
2018-06-09T20:54:34.496Z,12.67
2018-06-09T20:57:02.665Z,14.33
2018-06-09T20:59:31.856Z,11.90
2018-06-09T21:02:01.468Z,11.67
2018-06-09T21:04:29.640Z,12.93
2018-06-09T21:06:57.825Z,13.57
2018-06-09T21:09:26.064Z,10.97
2018-06-09T21:11:54.337Z,12.87
2018-06-09T21:14:22.498Z,15.10
2018-06-09T21:16:50.731Z,13.90
2018-06-09T21:19:18.918Z,11.63
2018-06-09T21:21:47.252Z,27.60
2018-06-09T21:24:15.600Z,19.50
2018-06-09T21:26:49.167Z,18.93
2018-06-09T21:29:22.567Z,20.87
2018-06-09T21:31:50.723Z,15.53
2018-06-09T21:34:32.249Z,14.27
2018-06-09T21:37:05.645Z,12.83
2018-06-09T21:39:39.236Z,12.10
2018-06-09T21:42:12.679Z,9.23
2018-06-09T21:44:46.356Z,9.50
2018-06-09T21:47:14.806Z,11.27
2018-06-09T21:49:42.986Z,10.37
2018-06-09T21:52:11.165Z,10.13
2018-06-09T21:54:39.336Z,7.90
2018-06-09T21:57:07.511Z,7.10
2018-06-09T21:59:35.688Z,8.03
2018-06-09T22:02:03.877Z,6.60
2018-06-09T22:04:32.078Z,5.87
2018-06-09T22:07:00.233Z,5.53
2018-06-09T22:09:28.406Z,5.53
2018-06-09T22:11:56.654Z,6.30
2018-06-09T22:14:24.913Z,5.43
2018-06-09T22:16:53.106Z,6.00
2018-06-09T22:19:21.469Z,4.63
2018-06-09T22:21:49.776Z,4.90
2018-06-09T22:24:18.360Z,4.90
2018-06-09T22:26:46.572Z,4.23
2018-06-09T22:29:14.748Z,4.20
2018-06-09T22:31:42.932Z,4.43
2018-06-09T22:34:11.590Z,4.17
2018-06-09T22:36:39.747Z,4.07
2018-06-09T22:39:07.708Z,3.73
2018-06-09T22:41:35.856Z,3.93
2018-06-09T22:44:04.104Z,5.47
2018-06-09T22:46:32.265Z,4.90
2018-06-09T22:49:00.414Z,4.33
2018-06-09T22:51:28.644Z,4.67
2018-06-09T22:53:57.036Z,5.83
2018-06-09T22:56:25.408Z,4.10
2018-06-09T22:58:53.653Z,5.63
2018-06-09T23:01:22.013Z,5.60
2018-06-09T23:03:50.157Z,6.47
2018-06-09T23:06:23.429Z,5.30
2018-06-09T23:08:51.645Z,5.83
2018-06-09T23:11:19.621Z,5.57
2018-06-09T23:13:47.851Z,4.43
2018-06-09T23:16:15.992Z,4.47
2018-06-09T23:18:44.187Z,5.67
2018-06-09T23:21:12.396Z,3.93
2018-06-09T23:23:40.632Z,3.70
2018-06-09T23:26:08.793Z,4.37
2018-06-09T23:28:36.948Z,3.40
2018-06-09T23:31:05.193Z,4.37
2018-06-09T23:33:33.379Z,5.40
2018-06-09T23:36:01.541Z,4.23
2018-06-09T23:38:29.685Z,4.07
2018-06-09T23:40:57.934Z,3.90
2018-06-09T23:43:26.081Z,4.73
2018-06-09T23:45:54.248Z,3.43
2018-06-09T23:48:22.497Z,3.50
2018-06-09T23:50:50.660Z,3.50
2018-06-09T23:53:18.907Z,3.37
2018-06-09T23:55:47.438Z,3.10
2018-06-09T23:58:15.620Z,3.53
